sensor_id;sensor_type;location;lat;lon;timestamp;P1;durP1;ratioP1;P2;durP2;ratioP2
62332;SDS011;48624;49.812;8.562;2023-08-21T00:00:39;9.02;;;7.80;;
62332;SDS011;48624;49.812;8.562;2023-08-21T00:03:04;9.55;;;6.97;;
62332;SDS011;48624;49.812;8.562;2023-08-21T00:05:29;10.02;;;6.63;;
62332;SDS011;48624;49.812;8.562;2023-08-21T00:07:55;9.43;;;7.40;;
62332;SDS011;48624;49.812;8.562;2023-08-21T00:10:20;8.98;;;7.40;;
62332;SDS011;48624;49.812;8.562;2023-08-21T00:12:45;9.57;;;6.53;;
62332;SDS011;48624;49.812;8.562;2023-08-21T00:15:11;10.85;;;6.35;;
62332;SDS011;48624;49.812;8.562;2023-08-21T00:17:36;9.60;;;6.97;;
62332;SDS011;48624;49.812;8.562;2023-08-21T00:20:01;12.02;;;7.00;;
62332;SDS011;48624;49.812;8.562;2023-08-21T00:22:27;9.85;;;7.57;;
62332;SDS011;48624;49.812;8.562;2023-08-21T00:24:52;10.70;;;7.03;;
62332;SDS011;48624;49.812;8.562;2023-08-21T00:27:18;12.07;;;7.18;;
62332;SDS011;48624;49.812;8.562;2023-08-21T00:29:43;9.00;;;7.72;;
62332;SDS011;48624;49.812;8.562;2023-08-21T00:32:08;8.88;;;7.53;;
62332;SDS011;48624;49.812;8.562;2023-08-21T00:34:34;7.43;;;6.72;;
62332;SDS011;48624;49.812;8.562;2023-08-21T00:36:59;8.85;;;7.20;;
62332;SDS011;48624;49.812;8.562;2023-08-21T00:39:24;9.63;;;7.78;;
62332;SDS011;48624;49.812;8.562;2023-08-21T00:41:49;10.80;;;7.13;;
62332;SDS011;48624;49.812;8.562;2023-08-21T00:44:15;7.85;;;6.43;;
62332;SDS011;48624;49.812;8.562;2023-08-21T00:46:40;8.57;;;6.85;;
62332;SDS011;48624;49.812;8.562;2023-08-21T00:49:05;9.30;;;7.40;;
62332;SDS011;48624;49.812;8.562;2023-08-21T00:51:31;6.72;;;6.03;;
62332;SDS011;48624;49.812;8.562;2023-08-21T00:53:57;10.02;;;7.45;;
62332;SDS011;48624;49.812;8.562;2023-08-21T00:56:23;12.20;;;7.93;;
62332;SDS011;48624;49.812;8.562;2023-08-21T00:58:49;9.60;;;7.10;;
62332;SDS011;48624;49.812;8.562;2023-08-21T01:01:14;9.48;;;7.15;;
62332;SDS011;48624;49.812;8.562;2023-08-21T01:03:42;11.13;;;7.45;;
62332;SDS011;48624;49.812;8.562;2023-08-21T01:06:09;11.55;;;7.30;;
62332;SDS011;48624;49.812;8.562;2023-08-21T01:08:40;12.98;;;7.47;;
62332;SDS011;48624;49.812;8.562;2023-08-21T01:11:26;9.77;;;7.60;;
62332;SDS011;48624;49.812;8.562;2023-08-21T01:14:06;9.50;;;7.30;;
62332;SDS011;48624;49.812;8.562;2023-08-21T01:16:42;8.52;;;7.13;;
62332;SDS011;48624;49.812;8.562;2023-08-21T01:19:10;12.73;;;7.22;;
62332;SDS011;48624;49.812;8.562;2023-08-21T01:21:49;10.68;;;7.35;;
62332;SDS011;48624;49.812;8.562;2023-08-21T01:24:18;9.60;;;7.25;;
62332;SDS011;48624;49.812;8.562;2023-08-21T01:26:44;10.40;;;8.35;;
62332;SDS011;48624;49.812;8.562;2023-08-21T01:29:09;8.95;;;8.05;;
62332;SDS011;48624;49.812;8.562;2023-08-21T01:31:35;10.95;;;7.65;;
62332;SDS011;48624;49.812;8.562;2023-08-21T01:34:04;11.20;;;7.75;;
62332;SDS011;48624;49.812;8.562;2023-08-21T01:36:32;9.65;;;7.45;;
62332;SDS011;48624;49.812;8.562;2023-08-21T01:38:59;9.40;;;7.60;;
62332;SDS011;48624;49.812;8.562;2023-08-21T01:41:24;9.98;;;8.35;;
62332;SDS011;48624;49.812;8.562;2023-08-21T01:43:50;10.23;;;8.50;;
62332;SDS011;48624;49.812;8.562;2023-08-21T01:46:16;12.43;;;8.65;;
62332;SDS011;48624;49.812;8.562;2023-08-21T01:48:41;12.15;;;8.13;;
62332;SDS011;48624;49.812;8.562;2023-08-21T01:51:06;12.80;;;8.57;;
62332;SDS011;48624;49.812;8.562;2023-08-21T01:53:32;9.38;;;7.53;;
62332;SDS011;48624;49.812;8.562;2023-08-21T01:55:57;10.82;;;8.27;;
62332;SDS011;48624;49.812;8.562;2023-08-21T01:58:22;11.65;;;8.98;;
62332;SDS011;48624;49.812;8.562;2023-08-21T02:00:48;9.82;;;7.93;;
62332;SDS011;48624;49.812;8.562;2023-08-21T02:03:13;9.13;;;8.07;;
62332;SDS011;48624;49.812;8.562;2023-08-21T02:05:39;10.15;;;8.57;;
62332;SDS011;48624;49.812;8.562;2023-08-21T02:08:05;11.75;;;8.40;;
62332;SDS011;48624;49.812;8.562;2023-08-21T02:10:31;12.68;;;8.48;;
62332;SDS011;48624;49.812;8.562;2023-08-21T02:12:57;10.00;;;7.75;;
62332;SDS011;48624;49.812;8.562;2023-08-21T02:15:22;9.88;;;8.88;;
62332;SDS011;48624;49.812;8.562;2023-08-21T02:17:48;8.85;;;7.68;;
62332;SDS011;48624;49.812;8.562;2023-08-21T02:20:13;13.93;;;7.80;;
62332;SDS011;48624;49.812;8.562;2023-08-21T02:22:38;12.85;;;10.13;;
62332;SDS011;48624;49.812;8.562;2023-08-21T02:25:04;10.93;;;9.05;;
62332;SDS011;48624;49.812;8.562;2023-08-21T02:27:29;9.35;;;8.18;;
62332;SDS011;48624;49.812;8.562;2023-08-21T02:29:55;11.75;;;9.70;;
62332;SDS011;48624;49.812;8.562;2023-08-21T02:32:21;13.48;;;9.30;;
62332;SDS011;48624;49.812;8.562;2023-08-21T02:34:46;12.50;;;9.93;;
62332;SDS011;48624;49.812;8.562;2023-08-21T02:37:11;13.63;;;9.00;;
62332;SDS011;48624;49.812;8.562;2023-08-21T02:39:37;14.20;;;9.13;;
62332;SDS011;48624;49.812;8.562;2023-08-21T02:42:02;10.23;;;9.15;;
62332;SDS011;48624;49.812;8.562;2023-08-21T02:44:27;11.10;;;8.50;;
62332;SDS011;48624;49.812;8.562;2023-08-21T02:46:53;11.18;;;9.80;;
62332;SDS011;48624;49.812;8.562;2023-08-21T02:49:18;11.95;;;9.13;;
62332;SDS011;48624;49.812;8.562;2023-08-21T02:51:43;12.40;;;9.48;;
62332;SDS011;48624;49.812;8.562;2023-08-21T02:54:08;14.88;;;10.38;;
62332;SDS011;48624;49.812;8.562;2023-08-21T02:56:34;12.98;;;10.43;;
62332;SDS011;48624;49.812;8.562;2023-08-21T02:58:59;11.15;;;10.02;;
62332;SDS011;48624;49.812;8.562;2023-08-21T03:01:24;15.25;;;10.55;;
62332;SDS011;48624;49.812;8.562;2023-08-21T03:03:50;14.40;;;10.48;;
62332;SDS011;48624;49.812;8.562;2023-08-21T03:06:15;13.23;;;10.57;;
62332;SDS011;48624;49.812;8.562;2023-08-21T03:08:41;15.55;;;10.85;;
62332;SDS011;48624;49.812;8.562;2023-08-21T03:11:09;10.63;;;9.52;;
62332;SDS011;48624;49.812;8.562;2023-08-21T03:13:34;11.00;;;9.27;;
62332;SDS011;48624;49.812;8.562;2023-08-21T03:16:00;11.98;;;9.63;;
62332;SDS011;48624;49.812;8.562;2023-08-21T03:18:29;15.23;;;10.73;;
62332;SDS011;48624;49.812;8.562;2023-08-21T03:20:56;10.45;;;9.40;;
62332;SDS011;48624;49.812;8.562;2023-08-21T03:23:21;14.40;;;11.25;;
62332;SDS011;48624;49.812;8.562;2023-08-21T03:25:47;16.95;;;9.73;;
62332;SDS011;48624;49.812;8.562;2023-08-21T03:28:12;11.68;;;9.57;;
62332;SDS011;48624;49.812;8.562;2023-08-21T03:30:39;13.13;;;10.88;;
62332;SDS011;48624;49.812;8.562;2023-08-21T03:33:04;12.90;;;10.85;;
62332;SDS011;48624;49.812;8.562;2023-08-21T03:35:30;12.48;;;9.80;;
62332;SDS011;48624;49.812;8.562;2023-08-21T03:37:55;13.25;;;11.00;;
62332;SDS011;48624;49.812;8.562;2023-08-21T03:40:21;15.27;;;11.48;;
62332;SDS011;48624;49.812;8.562;2023-08-21T03:42:46;13.63;;;10.90;;
62332;SDS011;48624;49.812;8.562;2023-08-21T03:45:12;14.23;;;10.68;;
62332;SDS011;48624;49.812;8.562;2023-08-21T03:47:37;11.63;;;9.85;;
62332;SDS011;48624;49.812;8.562;2023-08-21T03:50:02;12.45;;;9.85;;
62332;SDS011;48624;49.812;8.562;2023-08-21T03:52:28;14.50;;;10.38;;
62332;SDS011;48624;49.812;8.562;2023-08-21T03:54:53;14.68;;;11.57;;
62332;SDS011;48624;49.812;8.562;2023-08-21T03:57:18;12.32;;;10.15;;
62332;SDS011;48624;49.812;8.562;2023-08-21T03:59:44;14.30;;;10.57;;
62332;SDS011;48624;49.812;8.562;2023-08-21T04:02:09;17.15;;;11.23;;
62332;SDS011;48624;49.812;8.562;2023-08-21T04:04:34;12.52;;;10.68;;
62332;SDS011;48624;49.812;8.562;2023-08-21T04:06:59;16.48;;;11.63;;
62332;SDS011;48624;49.812;8.562;2023-08-21T04:09:25;16.58;;;11.10;;
62332;SDS011;48624;49.812;8.562;2023-08-21T04:11:50;12.55;;;11.25;;
62332;SDS011;48624;49.812;8.562;2023-08-21T04:14:15;15.70;;;12.23;;
62332;SDS011;48624;49.812;8.562;2023-08-21T04:16:40;13.18;;;11.20;;
62332;SDS011;48624;49.812;8.562;2023-08-21T04:19:06;14.90;;;11.98;;
62332;SDS011;48624;49.812;8.562;2023-08-21T04:21:31;17.38;;;11.88;;
62332;SDS011;48624;49.812;8.562;2023-08-21T04:23:56;12.50;;;10.95;;
62332;SDS011;48624;49.812;8.562;2023-08-21T04:26:22;16.50;;;11.57;;
62332;SDS011;48624;49.812;8.562;2023-08-21T04:28:47;17.00;;;11.85;;
62332;SDS011;48624;49.812;8.562;2023-08-21T04:31:13;16.88;;;12.95;;
62332;SDS011;48624;49.812;8.562;2023-08-21T04:33:38;14.00;;;12.00;;
62332;SDS011;48624;49.812;8.562;2023-08-21T04:36:04;17.55;;;13.13;;
62332;SDS011;48624;49.812;8.562;2023-08-21T04:38:29;14.68;;;11.57;;
62332;SDS011;48624;49.812;8.562;2023-08-21T04:40:55;14.05;;;11.43;;
62332;SDS011;48624;49.812;8.562;2023-08-21T04:43:20;12.98;;;11.10;;
62332;SDS011;48624;49.812;8.562;2023-08-21T04:45:49;14.82;;;11.38;;
62332;SDS011;48624;49.812;8.562;2023-08-21T04:48:16;13.52;;;11.15;;
62332;SDS011;48624;49.812;8.562;2023-08-21T04:50:41;15.85;;;12.15;;
62332;SDS011;48624;49.812;8.562;2023-08-21T04:53:07;14.27;;;12.65;;
62332;SDS011;48624;49.812;8.562;2023-08-21T04:55:32;15.13;;;11.68;;
62332;SDS011;48624;49.812;8.562;2023-08-21T04:57:59;18.45;;;12.43;;
62332;SDS011;48624;49.812;8.562;2023-08-21T05:00:24;22.23;;;12.43;;
62332;SDS011;48624;49.812;8.562;2023-08-21T05:02:51;15.65;;;12.48;;
62332;SDS011;48624;49.812;8.562;2023-08-21T05:05:16;15.50;;;12.18;;
62332;SDS011;48624;49.812;8.562;2023-08-21T05:07:41;14.43;;;12.43;;
62332;SDS011;48624;49.812;8.562;2023-08-21T05:10:07;20.40;;;13.90;;
62332;SDS011;48624;49.812;8.562;2023-08-21T05:12:32;15.30;;;12.30;;
62332;SDS011;48624;49.812;8.562;2023-08-21T05:14:58;16.67;;;12.27;;
62332;SDS011;48624;49.812;8.562;2023-08-21T05:17:24;17.20;;;13.52;;
62332;SDS011;48624;49.812;8.562;2023-08-21T05:19:50;14.85;;;13.18;;
62332;SDS011;48624;49.812;8.562;2023-08-21T05:22:15;16.08;;;12.90;;
62332;SDS011;48624;49.812;8.562;2023-08-21T05:24:40;18.73;;;13.93;;
62332;SDS011;48624;49.812;8.562;2023-08-21T05:27:06;16.52;;;13.73;;
62332;SDS011;48624;49.812;8.562;2023-08-21T05:29:31;14.93;;;13.32;;
62332;SDS011;48624;49.812;8.562;2023-08-21T05:31:56;18.85;;;13.57;;
62332;SDS011;48624;49.812;8.562;2023-08-21T05:34:22;16.30;;;12.65;;
62332;SDS011;48624;49.812;8.562;2023-08-21T05:36:47;17.48;;;13.32;;
62332;SDS011;48624;49.812;8.562;2023-08-21T05:39:13;15.70;;;14.05;;
62332;SDS011;48624;49.812;8.562;2023-08-21T05:41:38;16.60;;;13.60;;
62332;SDS011;48624;49.812;8.562;2023-08-21T05:44:04;17.90;;;13.02;;
62332;SDS011;48624;49.812;8.562;2023-08-21T05:46:29;14.68;;;13.13;;
62332;SDS011;48624;49.812;8.562;2023-08-21T05:48:54;15.02;;;13.02;;
62332;SDS011;48624;49.812;8.562;2023-08-21T05:51:20;14.40;;;12.80;;
62332;SDS011;48624;49.812;8.562;2023-08-21T05:53:45;16.88;;;12.80;;
62332;SDS011;48624;49.812;8.562;2023-08-21T05:56:10;14.95;;;12.88;;
62332;SDS011;48624;49.812;8.562;2023-08-21T05:58:36;13.65;;;12.32;;
62332;SDS011;48624;49.812;8.562;2023-08-21T06:01:01;16.83;;;12.43;;
62332;SDS011;48624;49.812;8.562;2023-08-21T06:03:26;16.70;;;13.32;;
62332;SDS011;48624;49.812;8.562;2023-08-21T06:05:51;13.40;;;11.93;;
62332;SDS011;48624;49.812;8.562;2023-08-21T06:08:17;16.92;;;13.63;;
62332;SDS011;48624;49.812;8.562;2023-08-21T06:10:43;14.30;;;12.73;;
62332;SDS011;48624;49.812;8.562;2023-08-21T06:13:08;14.70;;;11.65;;
62332;SDS011;48624;49.812;8.562;2023-08-21T06:15:33;13.35;;;11.77;;
62332;SDS011;48624;49.812;8.562;2023-08-21T06:18:00;13.48;;;11.88;;
62332;SDS011;48624;49.812;8.562;2023-08-21T06:20:25;15.15;;;11.82;;
62332;SDS011;48624;49.812;8.562;2023-08-21T06:22:51;12.30;;;10.98;;
62332;SDS011;48624;49.812;8.562;2023-08-21T06:25:16;13.63;;;12.00;;
62332;SDS011;48624;49.812;8.562;2023-08-21T06:27:44;10.88;;;9.77;;
62332;SDS011;48624;49.812;8.562;2023-08-21T06:30:09;12.50;;;11.10;;
62332;SDS011;48624;49.812;8.562;2023-08-21T06:32:35;12.52;;;10.05;;
62332;SDS011;48624;49.812;8.562;2023-08-21T06:35:00;12.57;;;10.95;;
62332;SDS011;48624;49.812;8.562;2023-08-21T06:37:25;12.80;;;10.70;;
62332;SDS011;48624;49.812;8.562;2023-08-21T06:39:51;13.45;;;9.95;;
62332;SDS011;48624;49.812;8.562;2023-08-21T06:42:17;13.05;;;11.45;;
62332;SDS011;48624;49.812;8.562;2023-08-21T06:44:42;12.50;;;10.52;;
62332;SDS011;48624;49.812;8.562;2023-08-21T06:47:08;11.60;;;9.43;;
62332;SDS011;48624;49.812;8.562;2023-08-21T06:49:33;12.23;;;10.43;;
62332;SDS011;48624;49.812;8.562;2023-08-21T06:51:58;13.45;;;10.95;;
62332;SDS011;48624;49.812;8.562;2023-08-21T06:54:24;11.77;;;10.27;;
62332;SDS011;48624;49.812;8.562;2023-08-21T06:56:50;14.07;;;10.18;;
62332;SDS011;48624;49.812;8.562;2023-08-21T06:59:16;12.13;;;9.63;;
62332;SDS011;48624;49.812;8.562;2023-08-21T07:01:41;11.57;;;9.63;;
62332;SDS011;48624;49.812;8.562;2023-08-21T07:04:06;10.93;;;9.82;;
62332;SDS011;48624;49.812;8.562;2023-08-21T07:06:32;11.07;;;9.15;;
62332;SDS011;48624;49.812;8.562;2023-08-21T07:08:57;10.65;;;9.57;;
62332;SDS011;48624;49.812;8.562;2023-08-21T07:11:22;14.77;;;9.73;;
62332;SDS011;48624;49.812;8.562;2023-08-21T07:13:48;10.63;;;9.13;;
62332;SDS011;48624;49.812;8.562;2023-08-21T07:16:14;10.93;;;9.75;;
62332;SDS011;48624;49.812;8.562;2023-08-21T07:18:39;13.60;;;9.88;;
62332;SDS011;48624;49.812;8.562;2023-08-21T07:21:04;11.55;;;9.23;;
62332;SDS011;48624;49.812;8.562;2023-08-21T07:23:33;10.10;;;9.07;;
62332;SDS011;48624;49.812;8.562;2023-08-21T07:25:59;9.40;;;8.45;;
62332;SDS011;48624;49.812;8.562;2023-08-21T07:28:24;10.75;;;9.35;;
62332;SDS011;48624;49.812;8.562;2023-08-21T07:30:56;9.65;;;8.65;;
62332;SDS011;48624;49.812;8.562;2023-08-21T07:33:23;11.40;;;9.68;;
62332;SDS011;48624;49.812;8.562;2023-08-21T07:38:26;9.95;;;8.90;;
62332;SDS011;48624;49.812;8.562;2023-08-21T07:40:51;9.30;;;8.18;;
62332;SDS011;48624;49.812;8.562;2023-08-21T07:43:26;10.70;;;8.15;;
62332;SDS011;48624;49.812;8.562;2023-08-21T07:45:51;9.77;;;8.00;;
62332;SDS011;48624;49.812;8.562;2023-08-21T07:48:17;9.80;;;8.82;;
62332;SDS011;48624;49.812;8.562;2023-08-21T07:50:49;10.95;;;8.32;;
62332;SDS011;48624;49.812;8.562;2023-08-21T07:53:16;9.77;;;8.77;;
62332;SDS011;48624;49.812;8.562;2023-08-21T07:55:41;9.85;;;8.40;;
62332;SDS011;48624;49.812;8.562;2023-08-21T07:58:10;9.77;;;8.57;;
62332;SDS011;48624;49.812;8.562;2023-08-21T08:00:35;10.30;;;8.93;;
62332;SDS011;48624;49.812;8.562;2023-08-21T08:03:01;9.43;;;8.48;;
62332;SDS011;48624;49.812;8.562;2023-08-21T08:05:26;9.45;;;8.27;;
62332;SDS011;48624;49.812;8.562;2023-08-21T08:07:51;9.43;;;8.43;;
62332;SDS011;48624;49.812;8.562;2023-08-21T08:10:17;9.93;;;8.27;;
62332;SDS011;48624;49.812;8.562;2023-08-21T08:12:42;10.50;;;7.32;;
62332;SDS011;48624;49.812;8.562;2023-08-21T08:15:09;11.35;;;8.88;;
62332;SDS011;48624;49.812;8.562;2023-08-21T08:17:35;9.77;;;8.60;;
62332;SDS011;48624;49.812;8.562;2023-08-21T08:20:00;11.48;;;9.50;;
62332;SDS011;48624;49.812;8.562;2023-08-21T08:22:26;9.20;;;8.27;;
62332;SDS011;48624;49.812;8.562;2023-08-21T08:24:51;11.25;;;8.77;;
62332;SDS011;48624;49.812;8.562;2023-08-21T08:27:17;9.20;;;7.35;;
62332;SDS011;48624;49.812;8.562;2023-08-21T08:29:42;9.20;;;8.27;;
62332;SDS011;48624;49.812;8.562;2023-08-21T08:32:07;8.43;;;7.60;;
62332;SDS011;48624;49.812;8.562;2023-08-21T08:34:33;9.13;;;8.02;;
62332;SDS011;48624;49.812;8.562;2023-08-21T08:36:58;9.70;;;8.30;;
62332;SDS011;48624;49.812;8.562;2023-08-21T08:39:23;11.77;;;8.50;;
62332;SDS011;48624;49.812;8.562;2023-08-21T08:41:56;9.82;;;7.65;;
62332;SDS011;48624;49.812;8.562;2023-08-21T08:44:25;8.27;;;7.47;;
62332;SDS011;48624;49.812;8.562;2023-08-21T08:46:53;10.90;;;8.18;;
62332;SDS011;48624;49.812;8.562;2023-08-21T08:49:20;9.38;;;7.88;;
62332;SDS011;48624;49.812;8.562;2023-08-21T08:51:46;9.20;;;8.30;;
62332;SDS011;48624;49.812;8.562;2023-08-21T08:54:14;8.60;;;7.80;;
62332;SDS011;48624;49.812;8.562;2023-08-21T08:56:43;9.25;;;7.07;;
62332;SDS011;48624;49.812;8.562;2023-08-21T08:59:08;9.65;;;7.75;;
62332;SDS011;48624;49.812;8.562;2023-08-21T09:01:34;9.85;;;8.02;;
62332;SDS011;48624;49.812;8.562;2023-08-21T09:04:00;10.80;;;7.85;;
62332;SDS011;48624;49.812;8.562;2023-08-21T09:06:25;9.13;;;7.70;;
62332;SDS011;48624;49.812;8.562;2023-08-21T09:08:54;8.75;;;7.95;;
62332;SDS011;48624;49.812;8.562;2023-08-21T09:11:21;8.57;;;7.78;;
62332;SDS011;48624;49.812;8.562;2023-08-21T09:13:50;8.10;;;7.30;;
62332;SDS011;48624;49.812;8.562;2023-08-21T09:16:20;7.90;;;7.18;;
62332;SDS011;48624;49.812;8.562;2023-08-21T09:18:53;9.10;;;8.15;;
62332;SDS011;48624;49.812;8.562;2023-08-21T09:21:21;8.75;;;7.75;;
62332;SDS011;48624;49.812;8.562;2023-08-21T09:23:49;10.18;;;7.60;;
62332;SDS011;48624;49.812;8.562;2023-08-21T09:26:21;7.63;;;6.82;;
62332;SDS011;48624;49.812;8.562;2023-08-21T09:28:48;8.40;;;7.25;;
62332;SDS011;48624;49.812;8.562;2023-08-21T09:31:14;7.88;;;6.80;;
62332;SDS011;48624;49.812;8.562;2023-08-21T09:33:40;8.02;;;6.97;;
62332;SDS011;48624;49.812;8.562;2023-08-21T09:36:06;11.18;;;7.70;;
62332;SDS011;48624;49.812;8.562;2023-08-21T09:38:34;7.97;;;7.05;;
62332;SDS011;48624;49.812;8.562;2023-08-21T09:41:00;9.10;;;6.90;;
62332;SDS011;48624;49.812;8.562;2023-08-21T09:43:26;8.57;;;6.68;;
62332;SDS011;48624;49.812;8.562;2023-08-21T09:45:53;10.20;;;6.97;;
62332;SDS011;48624;49.812;8.562;2023-08-21T09:48:22;8.38;;;7.47;;
62332;SDS011;48624;49.812;8.562;2023-08-21T09:50:50;8.20;;;7.05;;
62332;SDS011;48624;49.812;8.562;2023-08-21T09:53:16;9.05;;;7.05;;
62332;SDS011;48624;49.812;8.562;2023-08-21T09:55:41;7.43;;;6.72;;
62332;SDS011;48624;49.812;8.562;2023-08-21T09:58:07;7.28;;;6.57;;
62332;SDS011;48624;49.812;8.562;2023-08-21T10:00:34;8.77;;;7.30;;
62332;SDS011;48624;49.812;8.562;2023-08-21T10:03:04;7.20;;;6.60;;
62332;SDS011;48624;49.812;8.562;2023-08-21T10:05:33;7.80;;;6.95;;
62332;SDS011;48624;49.812;8.562;2023-08-21T10:08:03;7.13;;;6.40;;
62332;SDS011;48624;49.812;8.562;2023-08-21T10:10:31;7.63;;;6.55;;
62332;SDS011;48624;49.812;8.562;2023-08-21T10:12:57;7.57;;;6.25;;
62332;SDS011;48624;49.812;8.562;2023-08-21T10:15:24;7.55;;;5.80;;
62332;SDS011;48624;49.812;8.562;2023-08-21T10:17:50;6.53;;;5.93;;
62332;SDS011;48624;49.812;8.562;2023-08-21T10:20:15;7.88;;;5.78;;
62332;SDS011;48624;49.812;8.562;2023-08-21T10:22:52;9.27;;;6.60;;
62332;SDS011;48624;49.812;8.562;2023-08-21T10:25:23;8.57;;;7.10;;
62332;SDS011;48624;49.812;8.562;2023-08-21T10:27:58;7.07;;;6.32;;
62332;SDS011;48624;49.812;8.562;2023-08-21T10:30:29;6.78;;;6.10;;
62332;SDS011;48624;49.812;8.562;2023-08-21T10:32:56;7.93;;;5.85;;
62332;SDS011;48624;49.812;8.562;2023-08-21T10:35:24;6.97;;;6.28;;
62332;SDS011;48624;49.812;8.562;2023-08-21T10:38:06;6.20;;;5.65;;
62332;SDS011;48624;49.812;8.562;2023-08-21T10:40:38;5.88;;;5.30;;
62332;SDS011;48624;49.812;8.562;2023-08-21T10:46:08;8.57;;;5.82;;
62332;SDS011;48624;49.812;8.562;2023-08-21T10:48:34;6.60;;;5.53;;
62332;SDS011;48624;49.812;8.562;2023-08-21T10:51:04;6.45;;;5.40;;
62332;SDS011;48624;49.812;8.562;2023-08-21T10:53:31;8.07;;;6.25;;
62332;SDS011;48624;49.812;8.562;2023-08-21T10:56:00;4.32;;;3.67;;
62332;SDS011;48624;49.812;8.562;2023-08-21T10:58:26;6.50;;;4.57;;
62332;SDS011;48624;49.812;8.562;2023-08-21T11:00:58;5.75;;;3.83;;
62332;SDS011;48624;49.812;8.562;2023-08-21T11:03:24;5.18;;;3.63;;
62332;SDS011;48624;49.812;8.562;2023-08-21T11:06:08;4.72;;;3.80;;
62332;SDS011;48624;49.812;8.562;2023-08-21T11:08:35;3.78;;;3.30;;
62332;SDS011;48624;49.812;8.562;2023-08-21T11:11:03;4.80;;;3.60;;
62332;SDS011;48624;49.812;8.562;2023-08-21T11:13:30;2.70;;;2.50;;
62332;SDS011;48624;49.812;8.562;2023-08-21T11:15:59;4.65;;;2.58;;
62332;SDS011;48624;49.812;8.562;2023-08-21T11:18:36;5.32;;;2.85;;
62332;SDS011;48624;49.812;8.562;2023-08-21T11:21:06;2.72;;;2.17;;
62332;SDS011;48624;49.812;8.562;2023-08-21T11:23:36;2.47;;;1.52;;
62332;SDS011;48624;49.812;8.562;2023-08-21T11:26:03;3.25;;;2.45;;
62332;SDS011;48624;49.812;8.562;2023-08-21T11:28:29;4.28;;;2.30;;
62332;SDS011;48624;49.812;8.562;2023-08-21T11:30:56;2.58;;;2.35;;
62332;SDS011;48624;49.812;8.562;2023-08-21T11:33:22;2.55;;;1.77;;
62332;SDS011;48624;49.812;8.562;2023-08-21T11:35:49;1.77;;;1.52;;
62332;SDS011;48624;49.812;8.562;2023-08-21T11:38:17;1.70;;;1.55;;
62332;SDS011;48624;49.812;8.562;2023-08-21T11:41:00;1.75;;;1.52;;
62332;SDS011;48624;49.812;8.562;2023-08-21T11:43:34;2.25;;;2.05;;
62332;SDS011;48624;49.812;8.562;2023-08-21T11:46:01;2.55;;;1.80;;
62332;SDS011;48624;49.812;8.562;2023-08-21T11:48:28;2.55;;;1.70;;
62332;SDS011;48624;49.812;8.562;2023-08-21T11:50:53;2.20;;;1.92;;
62332;SDS011;48624;49.812;8.562;2023-08-21T11:56:16;3.30;;;1.42;;
62332;SDS011;48624;49.812;8.562;2023-08-21T11:58:44;2.00;;;1.23;;
62332;SDS011;48624;49.812;8.562;2023-08-21T12:01:10;2.35;;;1.30;;
62332;SDS011;48624;49.812;8.562;2023-08-21T12:03:40;2.20;;;1.45;;
62332;SDS011;48624;49.812;8.562;2023-08-21T12:06:09;2.00;;;1.17;;
62332;SDS011;48624;49.812;8.562;2023-08-21T12:08:37;1.58;;;1.20;;
62332;SDS011;48624;49.812;8.562;2023-08-21T12:11:03;2.53;;;1.60;;
62332;SDS011;48624;49.812;8.562;2023-08-21T12:13:29;2.00;;;1.70;;
62332;SDS011;48624;49.812;8.562;2023-08-21T12:15:55;1.95;;;1.75;;
62332;SDS011;48624;49.812;8.562;2023-08-21T12:18:20;1.48;;;1.38;;
62332;SDS011;48624;49.812;8.562;2023-08-21T12:20:45;2.60;;;1.23;;
62332;SDS011;48624;49.812;8.562;2023-08-21T12:23:11;3.03;;;1.20;;
62332;SDS011;48624;49.812;8.562;2023-08-21T12:25:36;2.75;;;1.30;;
62332;SDS011;48624;49.812;8.562;2023-08-21T12:28:01;1.23;;;0.90;;
62332;SDS011;48624;49.812;8.562;2023-08-21T12:30:27;3.38;;;1.58;;
62332;SDS011;48624;49.812;8.562;2023-08-21T12:32:52;1.73;;;1.63;;
62332;SDS011;48624;49.812;8.562;2023-08-21T12:35:17;2.63;;;1.38;;
62332;SDS011;48624;49.812;8.562;2023-08-21T12:37:45;1.75;;;1.40;;
62332;SDS011;48624;49.812;8.562;2023-08-21T12:40:10;3.72;;;1.65;;
62332;SDS011;48624;49.812;8.562;2023-08-21T12:42:35;2.20;;;1.77;;
62332;SDS011;48624;49.812;8.562;2023-08-21T12:45:01;1.63;;;1.52;;
62332;SDS011;48624;49.812;8.562;2023-08-21T12:47:27;1.83;;;1.40;;
62332;SDS011;48624;49.812;8.562;2023-08-21T12:49:52;2.58;;;1.42;;
62332;SDS011;48624;49.812;8.562;2023-08-21T12:52:17;2.47;;;1.25;;
62332;SDS011;48624;49.812;8.562;2023-08-21T12:54:42;2.05;;;1.50;;
62332;SDS011;48624;49.812;8.562;2023-08-21T12:57:08;2.88;;;1.50;;
62332;SDS011;48624;49.812;8.562;2023-08-21T12:59:36;1.95;;;1.45;;
62332;SDS011;48624;49.812;8.562;2023-08-21T13:02:02;2.72;;;1.80;;
62332;SDS011;48624;49.812;8.562;2023-08-21T13:04:28;2.03;;;1.38;;
62332;SDS011;48624;49.812;8.562;2023-08-21T13:06:54;1.48;;;1.38;;
62332;SDS011;48624;49.812;8.562;2023-08-21T13:09:19;3.38;;;1.40;;
62332;SDS011;48624;49.812;8.562;2023-08-21T13:11:44;1.25;;;1.00;;
62332;SDS011;48624;49.812;8.562;2023-08-21T13:14:09;2.17;;;1.50;;
62332;SDS011;48624;49.812;8.562;2023-08-21T13:16:35;2.75;;;1.63;;
62332;SDS011;48624;49.812;8.562;2023-08-21T13:19:00;1.65;;;1.38;;
62332;SDS011;48624;49.812;8.562;2023-08-21T13:21:25;2.53;;;1.10;;
62332;SDS011;48624;49.812;8.562;2023-08-21T13:23:51;2.15;;;1.30;;
62332;SDS011;48624;49.812;8.562;2023-08-21T13:26:17;1.60;;;1.20;;
62332;SDS011;48624;49.812;8.562;2023-08-21T13:28:42;1.42;;;1.15;;
62332;SDS011;48624;49.812;8.562;2023-08-21T13:31:08;2.65;;;1.20;;
62332;SDS011;48624;49.812;8.562;2023-08-21T13:33:44;2.40;;;1.25;;
62332;SDS011;48624;49.812;8.562;2023-08-21T13:36:10;2.15;;;1.10;;
62332;SDS011;48624;49.812;8.562;2023-08-21T13:38:35;1.75;;;1.15;;
62332;SDS011;48624;49.812;8.562;2023-08-21T13:41:01;1.45;;;1.35;;
62332;SDS011;48624;49.812;8.562;2023-08-21T13:43:27;1.88;;;0.95;;
62332;SDS011;48624;49.812;8.562;2023-08-21T13:45:52;1.20;;;0.98;;
62332;SDS011;48624;49.812;8.562;2023-08-21T13:48:17;2.15;;;0.85;;
62332;SDS011;48624;49.812;8.562;2023-08-21T13:50:43;1.70;;;0.70;;
62332;SDS011;48624;49.812;8.562;2023-08-21T13:53:08;1.10;;;0.80;;
62332;SDS011;48624;49.812;8.562;2023-08-21T13:55:34;1.70;;;1.20;;
62332;SDS011;48624;49.812;8.562;2023-08-21T13:57:59;3.00;;;1.15;;
62332;SDS011;48624;49.812;8.562;2023-08-21T14:00:24;0.93;;;0.70;;
62332;SDS011;48624;49.812;8.562;2023-08-21T14:02:50;1.98;;;1.02;;
62332;SDS011;48624;49.812;8.562;2023-08-21T14:05:15;1.55;;;1.05;;
62332;SDS011;48624;49.812;8.562;2023-08-21T14:07:41;1.77;;;1.10;;
62332;SDS011;48624;49.812;8.562;2023-08-21T14:10:07;1.23;;;0.80;;
62332;SDS011;48624;49.812;8.562;2023-08-21T14:12:37;1.10;;;1.00;;
62332;SDS011;48624;49.812;8.562;2023-08-21T14:15:13;1.77;;;1.08;;
62332;SDS011;48624;49.812;8.562;2023-08-21T14:17:40;2.25;;;1.13;;
62332;SDS011;48624;49.812;8.562;2023-08-21T14:20:08;1.73;;;1.00;;
62332;SDS011;48624;49.812;8.562;2023-08-21T14:22:42;2.55;;;1.30;;
62332;SDS011;48624;49.812;8.562;2023-08-21T14:25:21;2.40;;;1.13;;
62332;SDS011;48624;49.812;8.562;2023-08-21T14:27:50;1.98;;;1.00;;
62332;SDS011;48624;49.812;8.562;2023-08-21T14:30:17;3.55;;;1.17;;
62332;SDS011;48624;49.812;8.562;2023-08-21T14:32:42;1.75;;;1.20;;
62332;SDS011;48624;49.812;8.562;2023-08-21T14:35:08;1.30;;;1.20;;
62332;SDS011;48624;49.812;8.562;2023-08-21T14:37:34;1.42;;;1.20;;
62332;SDS011;48624;49.812;8.562;2023-08-21T14:39:59;1.35;;;1.05;;
62332;SDS011;48624;49.812;8.562;2023-08-21T14:42:25;2.72;;;1.58;;